Time,TemperatureF,DewpointF,PressureIn,WindDirection,WindDirectionDegrees,WindSpeedMPH,WindSpeedGustMPH,Humidity,HourlyPrecipIn,Conditions,Clouds,dailyrainin,SoftwareType,DateUTC
2013-12-04 00:03:00,40.6,39.3,30.29,West,267,0.0,0.0,95,0.00,,,0.00,WeatherCatV1.23B16,2013-12-04 00:03:00,
2013-12-04 00:08:00,40.4,39.1,30.30,West,267,0.0,0.0,95,0.00,,,0.00,WeatherCatV1.23B16,2013-12-04 00:08:00,
2013-12-04 00:13:00,40.3,39.0,30.30,WSW,256,1.0,1.0,95,0.00,,,0.00,WeatherCatV1.23B16,2013-12-04 00:13:00,
2013-12-04 00:18:00,40.1,38.8,30.30,West,262,1.0,3.0,95,0.00,,,0.00,WeatherCatV1.23B16,2013-12-04 00:18:00,
2013-12-04 00:23:00,40.0,38.7,30.30,West,277,0.0,1.0,95,0.00,,,0.00,WeatherCatV1.23B16,2013-12-04 00:23:00,
2013-12-04 00:28:00,39.8,38.5,30.30,West,277,1.0,1.0,95,0.00,,,0.00,WeatherCatV1.23B16,2013-12-04 00:28:00,
2013-12-04 00:33:00,39.5,38.2,30.30,WNW,297,3.0,3.0,95,0.00,,,0.00,WeatherCatV1.23B16,2013-12-04 00:33:00,
2013-12-04 00:38:00,39.3,38.0,30.30,WNW,282,1.0,3.0,95,0.00,,,0.00,WeatherCatV1.23B16,2013-12-04 00:38:00,
2013-12-04 00:43:00,39.2,37.9,30.30,West,272,2.0,3.0,95,0.00,,,0.00,WeatherCatV1.23B16,2013-12-04 00:43:00,
2013-12-04 00:48:00,39.2,37.6,30.31,WNW,283,2.0,4.0,94,0.00,,,0.00,WeatherCatV1.23B16,2013-12-04 00:48:00,
2013-12-04 00:53:00,39.0,37.4,30.31,WNW,293,2.0,4.0,94,0.00,,,0.00,WeatherCatV1.23B16,2013-12-04 00:53:00,
2013-12-04 00:58:00,38.9,37.3,30.31,WNW,283,2.0,3.0,94,0.00,,,0.00,WeatherCatV1.23B16,2013-12-04 00:58:00,
2013-12-04 01:03:00,38.9,37.3,30.31,WNW,287,1.0,3.0,94,0.00,,,0.00,WeatherCatV1.23B16,2013-12-04 01:03:00,
2013-12-04 01:08:00,38.9,37.0,30.31,WNW,290,1.0,2.0,93,0.00,,,0.00,WeatherCatV1.23B16,2013-12-04 01:08:00,
2013-12-04 01:13:00,38.7,36.8,30.32,WNW,297,1.0,2.0,93,0.00,,,0.00,WeatherCatV1.23B16,2013-12-04 01:13:00,
2013-12-04 01:18:00,38.6,36.8,30.32,WNW,289,0.0,2.0,93,0.00,,,0.00,WeatherCatV1.23B16,2013-12-04 01:18:00,
2013-12-04 01:23:00,38.5,36.7,30.32,WNW,295,1.0,1.0,93,0.00,,,0.00,WeatherCatV1.23B16,2013-12-04 01:23:00,
2013-12-04 01:28:00,38.4,36.6,30.32,WNW,297,0.0,3.0,93,0.00,,,0.00,WeatherCatV1.23B16,2013-12-04 01:28:00,
2013-12-04 01:33:00,38.4,36.6,30.32,WNW,301,1.0,3.0,93,0.00,,,0.00,WeatherCatV1.23B16,2013-12-04 01:33:00,
2013-12-04 01:38:00,38.4,36.6,30.32,WNW,283,1.0,3.0,93,0.00,,,0.00,WeatherCatV1.23B16,2013-12-04 01:38:00,
2013-12-04 01:43:00,38.3,36.5,30.32,WNW,284,0.0,1.0,93,0.00,,,0.00,WeatherCatV1.23B16,2013-12-04 01:43:00,
2013-12-04 01:48:00,38.3,36.5,30.32,WNW,288,0.0,3.0,93,0.00,,,0.00,WeatherCatV1.23B16,2013-12-04 01:48:00,
2013-12-04 01:53:00,38.1,36.3,30.32,WNW,283,1.0,2.0,93,0.00,,,0.00,WeatherCatV1.23B16,2013-12-04 01:53:00,
2013-12-04 01:58:00,38.1,36.3,30.32,WNW,287,1.0,2.0,93,0.00,,,0.00,WeatherCatV1.23B16,2013-12-04 01:58:00,
2013-12-04 02:03:00,38.1,36.3,30.32,WNW,297,1.0,3.0,93,0.00,,,0.00,WeatherCatV1.23B16,2013-12-04 02:03:00,
2013-12-04 02:08:00,38.0,36.2,30.32,NW,304,1.0,2.0,93,0.00,,,0.00,WeatherCatV1.23B16,2013-12-04 02:08:00,
2013-12-04 02:13:00,37.9,36.1,30.32,WNW,295,2.0,3.0,93,0.00,,,0.00,WeatherCatV1.23B16,2013-12-04 02:13:00,
2013-12-04 02:18:00,38.0,36.2,30.33,WNW,294,1.0,2.0,93,0.00,,,0.00,WeatherCatV1.23B16,2013-12-04 02:18:00,
2013-12-04 02:23:00,38.1,36.3,30.32,WNW,298,1.0,3.0,93,0.00,,,0.00,WeatherCatV1.23B16,2013-12-04 02:23:00,
2013-12-04 02:28:00,38.1,36.3,30.32,WNW,295,2.0,2.0,93,0.00,,,0.00,WeatherCatV1.23B16,2013-12-04 02:28:00,
2013-12-04 02:33:00,38.0,36.2,30.32,West,266,1.0,2.0,93,0.00,,,0.00,WeatherCatV1.23B16,2013-12-04 02:33:00,
2013-12-04 02:38:00,38.1,36.3,30.32,WNW,291,1.0,2.0,93,0.00,,,0.00,WeatherCatV1.23B16,2013-12-04 02:38:00,
2013-12-04 02:43:00,38.1,36.3,30.32,WNW,290,0.0,2.0,93,0.00,,,0.00,WeatherCatV1.23B16,2013-12-04 02:43:00,
2013-12-04 02:48:00,38.1,36.3,30.33,WNW,293,2.0,4.0,93,0.00,,,0.00,WeatherCatV1.23B16,2013-12-04 02:48:00,
2013-12-04 02:53:00,38.3,36.5,30.33,West,281,2.0,3.0,93,0.00,,,0.00,WeatherCatV1.23B16,2013-12-04 02:53:00,
2013-12-04 02:58:00,38.3,36.2,30.33,WNW,283,2.0,4.0,92,0.00,,,0.00,WeatherCatV1.23B16,2013-12-04 02:58:00,
2013-12-04 03:03:00,38.3,36.2,30.33,WNW,283,2.0,3.0,92,0.00,,,0.00,WeatherCatV1.23B16,2013-12-04 03:03:00,
2013-12-04 03:08:00,38.3,36.2,30.33,WNW,295,2.0,4.0,92,0.00,,,0.00,WeatherCatV1.23B16,2013-12-04 03:08:00,
2013-12-04 03:13:00,38.2,36.4,30.33,NW,308,4.0,4.0,93,0.00,,,0.00,WeatherCatV1.23B16,2013-12-04 03:13:00,
2013-12-04 03:18:00,38.2,36.1,30.33,WNW,295,1.0,2.0,92,0.00,,,0.00,WeatherCatV1.23B16,2013-12-04 03:18:00,
2013-12-04 03:23:00,38.1,36.3,30.33,West,281,1.0,3.0,93,0.00,,,0.00,WeatherCatV1.23B16,2013-12-04 03:23:00,
2013-12-04 03:28:00,38.0,36.2,30.33,West,278,2.0,3.0,93,0.00,,,0.00,WeatherCatV1.23B16,2013-12-04 03:28:00,
2013-12-04 03:33:00,38.1,36.3,30.34,West,270,3.0,4.0,93,0.00,,,0.00,WeatherCatV1.23B16,2013-12-04 03:33:00,
2013-12-04 03:38:00,38.5,36.7,30.34,WNW,293,3.0,6.0,93,0.00,,,0.00,WeatherCatV1.23B16,2013-12-04 03:38:00,
2013-12-04 03:43:00,38.7,36.6,30.34,West,267,3.0,6.0,92,0.00,,,0.00,WeatherCatV1.23B16,2013-12-04 03:43:00,
2013-12-04 03:48:00,38.7,36.6,30.34,WNW,285,4.0,5.0,92,0.00,,,0.00,WeatherCatV1.23B16,2013-12-04 03:48:00,
2013-12-04 03:53:00,38.6,36.5,30.34,WNW,294,2.0,5.0,92,0.00,,,0.00,WeatherCatV1.23B16,2013-12-04 03:53:00,
2013-12-04 03:58:00,38.4,36.3,30.34,NW,304,1.0,3.0,92,0.00,,,0.00,WeatherCatV1.23B16,2013-12-04 03:58:00,
2013-12-04 04:03:00,38.4,36.3,30.34,WNW,288,2.0,3.0,92,0.00,,,0.00,WeatherCatV1.23B16,2013-12-04 04:03:00,
2013-12-04 04:08:00,38.4,36.3,30.34,WNW,291,3.0,4.0,92,0.00,,,0.00,WeatherCatV1.23B16,2013-12-04 04:08:00,
2013-12-04 04:13:00,38.4,36.3,30.34,WNW,288,2.0,4.0,92,0.00,,,0.00,WeatherCatV1.23B16,2013-12-04 04:13:00,
2013-12-04 04:18:00,38.3,36.2,30.34,WNW,290,3.0,5.0,92,0.00,,,0.00,WeatherCatV1.23B16,2013-12-04 04:18:00,
2013-12-04 04:23:00,38.5,36.4,30.34,West,280,3.0,4.0,92,0.00,,,0.00,WeatherCatV1.23B16,2013-12-04 04:23:00,
2013-12-04 04:28:00,38.5,36.4,30.34,WNW,297,1.0,3.0,92,0.00,,,0.00,WeatherCatV1.23B16,2013-12-04 04:28:00,
2013-12-04 04:33:00,38.3,36.2,30.34,NW,314,1.0,3.0,92,0.00,,,0.00,WeatherCatV1.23B16,2013-12-04 04:33:00,
2013-12-04 04:38:00,38.0,35.9,30.34,WNW,297,1.0,2.0,92,0.00,,,0.00,WeatherCatV1.23B16,2013-12-04 04:38:00,
2013-12-04 04:43:00,37.7,35.6,30.34,NW,319,1.0,2.0,92,0.00,,,0.00,WeatherCatV1.23B16,2013-12-04 04:43:00,
2013-12-04 04:48:00,37.2,35.1,30.34,WNW,295,1.0,2.0,92,0.00,,,0.00,WeatherCatV1.23B16,2013-12-04 04:48:00,
2013-12-04 04:53:00,37.6,36.0,30.35,West,278,4.0,6.0,94,0.00,,,0.00,WeatherCatV1.23B16,2013-12-04 04:53:00,
2013-12-04 04:58:00,37.8,36.0,30.35,WNW,293,3.0,5.0,93,0.00,,,0.00,WeatherCatV1.23B16,2013-12-04 04:58:00,
2013-12-04 05:01:00,38.0,36.2,30.35,WNW,283,3.0,4.0,93,0.00,,,0.00,WeatherCatV1.23B16,2013-12-04 05:01:00,
2013-12-04 05:06:00,38.2,36.1,30.35,WNW,284,3.0,4.0,92,0.00,,,0.00,WeatherCatV1.23B16,2013-12-04 05:06:00,
2013-12-04 05:11:00,38.4,36.3,30.35,West,279,2.0,4.0,92,0.00,,,0.00,WeatherCatV1.23B16,2013-12-04 05:11:00,
2013-12-04 05:16:00,38.7,36.6,30.35,West,271,4.0,6.0,92,0.00,,,0.00,WeatherCatV1.23B16,2013-12-04 05:16:00,
2013-12-04 05:21:00,38.8,36.7,30.35,WNW,293,1.0,3.0,92,0.00,,,0.00,WeatherCatV1.23B16,2013-12-04 05:21:00,
2013-12-04 05:26:00,38.7,36.6,30.36,WNW,293,2.0,5.0,92,0.00,,,0.00,WeatherCatV1.23B16,2013-12-04 05:26:00,
2013-12-04 05:31:00,38.5,36.4,30.36,WNW,282,2.0,4.0,92,0.00,,,0.00,WeatherCatV1.23B16,2013-12-04 05:31:00,
2013-12-04 05:36:00,38.3,36.2,30.36,WNW,295,1.0,2.0,92,0.00,,,0.00,WeatherCatV1.23B16,2013-12-04 05:36:00,
2013-12-04 05:41:00,38.1,36.0,30.36,WNW,297,1.0,3.0,92,0.00,,,0.00,WeatherCatV1.23B16,2013-12-04 05:41:00,
2013-12-04 05:46:00,38.1,36.0,30.36,WNW,293,3.0,3.0,92,0.00,,,0.00,WeatherCatV1.23B16,2013-12-04 05:46:00,
2013-12-04 05:51:00,38.1,35.7,30.36,WNW,293,4.0,4.0,91,0.00,,,0.00,WeatherCatV1.23B16,2013-12-04 05:51:00,
2013-12-04 05:56:00,38.0,35.6,30.36,West,269,1.0,2.0,91,0.00,,,0.00,WeatherCatV1.23B16,2013-12-04 05:56:00,
2013-12-04 06:01:00,38.2,36.1,30.36,WNW,283,4.0,5.0,92,0.00,,,0.00,WeatherCatV1.23B16,2013-12-04 06:01:00,
2013-12-04 06:06:00,38.6,36.2,30.36,WNW,301,2.0,5.0,91,0.00,,,0.00,WeatherCatV1.23B16,2013-12-04 06:06:00,
2013-12-04 06:11:00,39.0,36.6,30.36,West,263,4.0,6.0,91,0.00,,,0.00,WeatherCatV1.23B16,2013-12-04 06:11:00,
2013-12-04 06:16:00,39.3,36.6,30.36,West,279,2.0,5.0,90,0.00,,,0.00,WeatherCatV1.23B16,2013-12-04 06:16:00,
2013-12-04 06:21:00,39.2,36.5,30.37,WNW,283,3.0,4.0,90,0.00,,,0.00,WeatherCatV1.23B16,2013-12-04 06:21:00,
2013-12-04 06:26:00,39.2,36.5,30.36,West,267,3.0,5.0,90,0.00,,,0.00,WeatherCatV1.23B16,2013-12-04 06:26:00,
2013-12-04 06:31:00,39.2,36.5,30.36,West,274,3.0,4.0,90,0.00,,,0.00,WeatherCatV1.23B16,2013-12-04 06:31:00,
2013-12-04 06:36:00,39.3,36.6,30.37,WNW,283,1.0,3.0,90,0.00,,,0.00,WeatherCatV1.23B16,2013-12-04 06:36:00,
2013-12-04 06:41:00,39.2,36.2,30.37,WNW,293,0.0,2.0,89,0.00,,,0.00,WeatherCatV1.23B16,2013-12-04 06:41:00,
2013-12-04 06:46:00,38.9,35.9,30.37,West,281,2.0,2.0,89,0.00,,,0.00,WeatherCatV1.23B16,2013-12-04 06:46:00,
2013-12-04 06:51:00,38.6,35.9,30.37,WNW,290,1.0,1.0,90,0.00,,,0.00,WeatherCatV1.23B16,2013-12-04 06:51:00,
2013-12-04 06:56:00,38.1,35.4,30.38,WNW,290,1.0,2.0,90,0.00,,,0.00,WeatherCatV1.23B16,2013-12-04 06:56:00,
2013-12-04 07:01:00,37.7,35.3,30.37,West,280,1.0,1.0,91,0.00,,,0.00,WeatherCatV1.23B16,2013-12-04 07:01:00,
2013-12-04 07:06:00,37.8,35.7,30.38,West,276,1.0,2.0,92,0.00,,,0.00,WeatherCatV1.23B16,2013-12-04 07:06:00,
2013-12-04 07:11:00,37.8,35.7,30.38,West,267,1.0,3.0,92,0.00,,,0.00,WeatherCatV1.23B16,2013-12-04 07:11:00,
2013-12-04 07:16:00,37.9,35.8,30.38,WNW,283,1.0,2.0,92,0.00,,,0.00,WeatherCatV1.23B16,2013-12-04 07:16:00,
2013-12-04 07:21:00,37.9,35.8,30.38,West,274,1.0,2.0,92,0.00,,,0.00,WeatherCatV1.23B16,2013-12-04 07:21:00,
2013-12-04 07:26:00,37.8,35.7,30.38,WNW,291,1.0,1.0,92,0.00,,,0.00,WeatherCatV1.23B16,2013-12-04 07:26:00,
2013-12-04 07:31:00,37.6,35.5,30.38,WNW,290,1.0,1.0,92,0.00,,,0.00,WeatherCatV1.23B16,2013-12-04 07:31:00,
2013-12-04 07:36:00,37.6,35.5,30.38,WNW,289,1.0,2.0,92,0.00,,,0.00,WeatherCatV1.23B16,2013-12-04 07:36:00,
2013-12-04 07:41:00,37.4,35.3,30.39,WNW,283,0.0,1.0,92,0.00,,,0.00,WeatherCatV1.23B16,2013-12-04 07:41:00,
2013-12-04 07:46:00,37.3,35.2,30.39,West,277,0.0,0.0,92,0.00,,,0.00,WeatherCatV1.23B16,2013-12-04 07:46:00,
2013-12-04 07:51:00,37.1,35.0,30.39,West,277,0.0,0.0,92,0.00,,,0.00,WeatherCatV1.23B16,2013-12-04 07:51:00,
2013-12-04 07:56:00,37.1,35.0,30.39,West,262,1.0,1.0,92,0.00,,,0.00,WeatherCatV1.23B16,2013-12-04 07:56:00,
2013-12-04 08:01:00,37.1,35.0,30.39,West,272,1.0,1.0,92,0.00,,,0.00,WeatherCatV1.23B16,2013-12-04 08:01:00,
2013-12-04 08:06:00,37.2,35.1,30.39,WNW,284,0.0,2.0,92,0.00,,,0.00,WeatherCatV1.23B16,2013-12-04 08:06:00,
2013-12-04 08:11:00,37.2,35.1,30.39,WNW,284,1.0,1.0,92,0.00,,,0.00,WeatherCatV1.23B16,2013-12-04 08:11:00,
2013-12-04 08:16:00,37.3,35.2,30.40,West,280,0.0,1.0,92,0.00,,,0.00,WeatherCatV1.23B16,2013-12-04 08:16:00,
2013-12-04 08:21:00,37.6,35.5,30.40,WNW,288,3.0,4.0,92,0.00,,,0.00,WeatherCatV1.23B16,2013-12-04 08:21:00,
2013-12-04 08:26:00,38.1,35.7,30.40,WNW,283,4.0,4.0,91,0.00,,,0.00,WeatherCatV1.23B16,2013-12-04 08:26:00,
2013-12-04 08:31:00,38.3,35.6,30.40,WNW,284,4.0,5.0,90,0.00,,,0.00,WeatherCatV1.23B16,2013-12-04 08:31:00,
2013-12-04 08:36:00,38.5,35.8,30.41,West,277,1.0,3.0,90,0.00,,,0.00,WeatherCatV1.23B16,2013-12-04 08:36:00,
2013-12-04 08:41:00,38.5,35.5,30.41,West,277,1.0,2.0,89,0.00,,,0.00,WeatherCatV1.23B16,2013-12-04 08:41:00,
2013-12-04 08:46:00,38.6,35.6,30.41,WNW,287,3.0,3.0,89,0.00,,,0.00,WeatherCatV1.23B16,2013-12-04 08:46:00,
2013-12-04 08:51:00,38.8,35.8,30.41,West,280,3.0,5.0,89,0.00,,,0.00,WeatherCatV1.23B16,2013-12-04 08:51:00,
2013-12-04 08:56:00,38.9,35.9,30.41,WNW,297,2.0,6.0,89,0.00,,,0.00,WeatherCatV1.23B16,2013-12-04 08:56:00,
2013-12-04 09:01:00,39.0,36.0,30.42,West,281,5.0,5.0,89,0.00,,,0.00,WeatherCatV1.23B16,2013-12-04 09:01:00,
2013-12-04 09:06:00,39.4,36.2,30.42,WNW,295,4.0,4.0,88,0.00,,,0.00,WeatherCatV1.23B16,2013-12-04 09:06:00,
2013-12-04 09:11:00,39.5,36.2,30.42,WNW,288,3.0,5.0,88,0.00,,,0.00,WeatherCatV1.23B16,2013-12-04 09:11:00,
2013-12-04 09:16:00,39.7,36.2,30.43,WNW,303,2.0,6.0,87,0.00,,,0.00,WeatherCatV1.23B16,2013-12-04 09:16:00,
2013-12-04 09:21:00,40.1,36.5,30.43,WNW,290,1.0,6.0,87,0.00,,,0.00,WeatherCatV1.23B16,2013-12-04 09:21:00,
2013-12-04 09:26:00,40.1,36.2,30.43,WNW,291,2.0,5.0,86,0.00,,,0.00,WeatherCatV1.23B16,2013-12-04 09:26:00,
2013-12-04 09:31:00,40.1,36.2,30.43,NW,312,2.0,5.0,86,0.00,,,0.00,WeatherCatV1.23B16,2013-12-04 09:31:00,
2013-12-04 09:36:00,40.1,36.5,30.43,NNW,339,4.0,5.0,87,0.00,,,0.00,WeatherCatV1.23B16,2013-12-04 09:36:00,
2013-12-04 09:41:00,40.3,37.0,30.43,WNW,290,5.0,6.0,88,0.00,,,0.00,WeatherCatV1.23B16,2013-12-04 09:41:00,
2013-12-04 09:46:00,40.9,37.3,30.44,WNW,298,7.0,13.0,87,0.00,,,0.00,WeatherCatV1.23B16,2013-12-04 09:46:00,
2013-12-04 09:51:00,41.6,37.7,30.43,WNW,298,4.0,9.0,86,0.00,,,0.00,WeatherCatV1.23B16,2013-12-04 09:51:00,
2013-12-04 09:56:00,41.9,38.0,30.43,WNW,284,3.0,5.0,86,0.00,,,0.00,WeatherCatV1.23B16,2013-12-04 09:56:00,
2013-12-04 10:01:00,42.0,38.1,30.44,West,277,5.0,6.0,86,0.00,,,0.00,WeatherCatV1.23B16,2013-12-04 10:01:00,
2013-12-04 10:06:00,42.1,38.2,30.44,NW,314,4.0,5.0,86,0.00,,,0.00,WeatherCatV1.23B16,2013-12-04 10:06:00,
2013-12-04 10:11:00,42.1,38.2,30.44,West,281,2.0,6.0,86,0.00,,,0.00,WeatherCatV1.23B16,2013-12-04 10:11:00,
2013-12-04 10:16:00,42.4,38.8,30.44,WNW,288,1.0,4.0,87,0.00,,,0.00,WeatherCatV1.23B16,2013-12-04 10:16:00,
2013-12-04 10:21:00,42.5,38.6,30.44,SW,232,3.0,6.0,86,0.00,,,0.00,WeatherCatV1.23B16,2013-12-04 10:21:00,
2013-12-04 10:26:00,42.8,38.9,30.44,West,280,3.0,5.0,86,0.00,,,0.00,WeatherCatV1.23B16,2013-12-04 10:26:00,
2013-12-04 10:31:00,43.1,39.2,30.44,West,280,2.0,4.0,86,0.00,,,0.00,WeatherCatV1.23B16,2013-12-04 10:31:00,
2013-12-04 10:36:00,43.3,39.4,30.44,West,279,4.0,5.0,86,0.00,,,0.00,WeatherCatV1.23B16,2013-12-04 10:36:00,
2013-12-04 10:41:00,43.7,39.5,30.45,West,269,3.0,5.0,85,0.00,,,0.00,WeatherCatV1.23B16,2013-12-04 10:41:00,
2013-12-04 10:46:00,43.9,39.4,30.45,West,280,3.0,6.0,84,0.00,,,0.00,WeatherCatV1.23B16,2013-12-04 10:46:00,
2013-12-04 10:51:00,44.0,39.5,30.45,West,266,2.0,5.0,84,0.00,,,0.00,WeatherCatV1.23B16,2013-12-04 10:51:00,
2013-12-04 10:56:00,44.0,39.5,30.45,WNW,284,3.0,5.0,84,0.00,,,0.00,WeatherCatV1.23B16,2013-12-04 10:56:00,
2013-12-04 11:01:00,44.1,39.6,30.45,WSW,245,2.0,5.0,84,0.00,,,0.00,WeatherCatV1.23B16,2013-12-04 11:01:00,
2013-12-04 11:06:00,44.3,39.8,30.45,WSW,256,2.0,4.0,84,0.00,,,0.00,WeatherCatV1.23B16,2013-12-04 11:06:00,
2013-12-04 11:11:00,44.5,40.3,30.45,WNW,283,3.0,5.0,85,0.00,,,0.00,WeatherCatV1.23B16,2013-12-04 11:11:00,
2013-12-04 11:16:00,44.7,40.2,30.45,WSW,242,4.0,5.0,84,0.00,,,0.00,WeatherCatV1.23B16,2013-12-04 11:16:00,
2013-12-04 11:21:00,44.9,40.0,30.45,WNW,295,5.0,9.0,83,0.00,,,0.00,WeatherCatV1.23B16,2013-12-04 11:21:00,
2013-12-04 11:26:00,45.0,40.5,30.45,WNW,290,4.0,6.0,84,0.00,,,0.00,WeatherCatV1.23B16,2013-12-04 11:26:00,
2013-12-04 11:31:00,45.1,40.6,30.45,WNW,283,3.0,8.0,84,0.00,,,0.00,WeatherCatV1.23B16,2013-12-04 11:31:00,
2013-12-04 11:36:00,45.3,40.8,30.45,West,276,5.0,8.0,84,0.00,,,0.00,WeatherCatV1.23B16,2013-12-04 11:36:00,
2013-12-04 11:41:00,45.4,40.8,30.45,West,269,6.0,9.0,84,0.00,,,0.00,WeatherCatV1.23B16,2013-12-04 11:41:00,
2013-12-04 11:46:00,45.6,41.0,30.45,WNW,288,6.0,7.0,84,0.00,,,0.00,WeatherCatV1.23B16,2013-12-04 11:46:00,
2013-12-04 11:51:00,45.3,40.1,30.45,West,276,3.0,7.0,82,0.00,,,0.00,WeatherCatV1.23B16,2013-12-04 11:51:00,
2013-12-04 11:56:00,45.1,40.2,30.45,West,276,3.0,6.0,83,0.00,,,0.00,WeatherCatV1.23B16,2013-12-04 11:56:00,
2013-12-04 12:01:00,45.1,40.6,30.45,West,274,4.0,8.0,84,0.00,,,0.00,WeatherCatV1.23B16,2013-12-04 12:01:00,
2013-12-04 12:06:00,45.3,40.8,30.45,West,266,3.0,6.0,84,0.00,,,0.00,WeatherCatV1.23B16,2013-12-04 12:06:00,
2013-12-04 12:12:00,45.5,41.0,30.45,NW,304,4.0,6.0,84,0.00,,,0.00,WeatherCatV1.23B16,2013-12-04 12:12:00,
2013-12-04 12:17:00,45.6,41.0,30.45,West,276,6.0,6.0,84,0.00,,,0.00,WeatherCatV1.23B16,2013-12-04 12:17:00,
2013-12-04 12:22:00,45.7,40.8,30.45,WSW,256,4.0,7.0,83,0.00,,,0.00,WeatherCatV1.23B16,2013-12-04 12:22:00,
2013-12-04 12:27:00,46.0,41.1,30.45,West,271,4.0,5.0,83,0.00,,,0.00,WeatherCatV1.23B16,2013-12-04 12:27:00,
2013-12-04 12:32:00,46.1,41.2,30.45,WSW,246,3.0,4.0,83,0.00,,,0.00,WeatherCatV1.23B16,2013-12-04 12:32:00,
2013-12-04 12:37:00,46.3,41.4,30.45,SW,222,5.0,7.0,83,0.00,,,0.00,WeatherCatV1.23B16,2013-12-04 12:37:00,
2013-12-04 12:42:00,46.4,41.5,30.45,West,271,3.0,7.0,83,0.00,,,0.00,WeatherCatV1.23B16,2013-12-04 12:42:00,
2013-12-04 12:47:00,46.6,41.7,30.45,SW,232,6.0,8.0,83,0.00,,,0.00,WeatherCatV1.23B16,2013-12-04 12:47:00,
2013-12-04 12:52:00,46.8,41.9,30.45,WSW,253,4.0,6.0,83,0.00,,,0.00,WeatherCatV1.23B16,2013-12-04 12:52:00,
2013-12-04 12:57:00,47.1,41.6,30.45,WSW,249,8.0,8.0,81,0.00,,,0.00,WeatherCatV1.23B16,2013-12-04 12:57:00,
2013-12-04 13:02:00,47.5,42.0,30.45,WSW,252,4.0,7.0,81,0.00,,,0.00,WeatherCatV1.23B16,2013-12-04 13:02:00,
2013-12-04 13:07:00,47.3,41.8,30.46,West,264,9.0,10.0,81,0.00,,,0.00,WeatherCatV1.23B16,2013-12-04 13:07:00,
2013-12-04 13:12:00,46.0,41.4,30.45,SW,235,5.0,9.0,84,0.00,,,0.01,WeatherCatV1.23B16,2013-12-04 13:12:00,
2013-12-04 13:17:00,45.2,40.7,30.45,NNW,327,3.0,7.0,84,0.00,,,0.01,WeatherCatV1.23B16,2013-12-04 13:17:00,
2013-12-04 13:22:00,45.1,39.9,30.45,West,276,4.0,7.0,82,0.00,,,0.01,WeatherCatV1.23B16,2013-12-04 13:22:00,
2013-12-04 13:27:00,45.2,41.0,30.45,West,274,7.0,10.0,85,0.00,,,0.01,WeatherCatV1.23B16,2013-12-04 13:27:00,
2013-12-04 13:32:00,45.3,41.4,30.45,West,279,4.0,8.0,86,0.00,,,0.01,WeatherCatV1.23B16,2013-12-04 13:32:00,
2013-12-04 13:37:00,45.5,41.3,30.45,WSW,253,4.0,6.0,85,0.00,,,0.01,WeatherCatV1.23B16,2013-12-04 13:37:00,
2013-12-04 13:42:00,45.7,41.2,30.45,WNW,283,2.0,4.0,84,0.00,,,0.01,WeatherCatV1.23B16,2013-12-04 13:42:00,
2013-12-04 13:47:00,46.0,41.4,30.45,WSW,252,3.0,4.0,84,0.00,,,0.01,WeatherCatV1.23B16,2013-12-04 13:47:00,
2013-12-04 13:52:00,46.3,41.7,30.45,WSW,240,3.0,4.0,84,0.00,,,0.01,WeatherCatV1.23B16,2013-12-04 13:52:00,
2013-12-04 13:57:00,46.5,41.9,30.45,West,259,2.0,2.0,84,0.00,,,0.01,WeatherCatV1.23B16,2013-12-04 13:57:00,
2013-12-04 14:02:00,46.7,41.8,30.45,WSW,257,5.0,5.0,83,0.00,,,0.01,WeatherCatV1.23B16,2013-12-04 14:02:00,
2013-12-04 14:07:00,46.8,41.3,30.45,West,259,5.0,6.0,81,0.00,,,0.01,WeatherCatV1.23B16,2013-12-04 14:07:00,
2013-12-04 14:12:00,46.9,41.4,30.45,SSW,212,2.0,5.0,81,0.00,,,0.01,WeatherCatV1.23B16,2013-12-04 14:12:00,
2013-12-04 14:17:00,46.9,41.1,30.45,WSW,246,2.0,4.0,80,0.00,,,0.01,WeatherCatV1.23B16,2013-12-04 14:17:00,
2013-12-04 14:22:00,47.1,41.2,30.45,SW,229,4.0,7.0,80,0.00,,,0.01,WeatherCatV1.23B16,2013-12-04 14:22:00,
2013-12-04 14:27:00,47.2,41.3,30.45,SSW,194,2.0,5.0,80,0.00,,,0.01,WeatherCatV1.23B16,2013-12-04 14:27:00,
2013-12-04 14:32:00,47.2,41.3,30.45,WSW,242,4.0,7.0,80,0.00,,,0.01,WeatherCatV1.23B16,2013-12-04 14:32:00,
2013-12-04 14:37:00,47.2,41.0,30.45,WSW,250,4.0,8.0,79,0.00,,,0.01,WeatherCatV1.23B16,2013-12-04 14:37:00,
2013-12-04 14:42:00,47.2,41.3,30.45,WSW,246,5.0,7.0,80,0.00,,,0.01,WeatherCatV1.23B16,2013-12-04 14:42:00,
2013-12-04 14:47:00,47.1,41.2,30.45,SW,232,4.0,8.0,80,0.00,,,0.01,WeatherCatV1.23B16,2013-12-04 14:47:00,
2013-12-04 14:52:00,47.1,41.2,30.45,SW,224,6.0,6.0,80,0.00,,,0.01,WeatherCatV1.23B16,2013-12-04 14:52:00,
2013-12-04 14:57:00,47.1,41.2,30.44,West,270,6.0,11.0,80,0.00,,,0.01,WeatherCatV1.23B16,2013-12-04 14:57:00,
2013-12-04 15:02:00,47.0,40.8,30.44,SW,219,4.0,7.0,79,0.00,,,0.01,WeatherCatV1.23B16,2013-12-04 15:02:00,
2013-12-04 15:07:00,47.0,41.2,30.44,WSW,256,4.0,6.0,80,0.00,,,0.01,WeatherCatV1.23B16,2013-12-04 15:07:00,
2013-12-04 15:12:00,46.9,41.1,30.44,SW,235,4.0,5.0,80,0.00,,,0.01,WeatherCatV1.23B16,2013-12-04 15:12:00,
2013-12-04 15:17:00,46.7,40.5,30.44,West,276,3.0,6.0,79,0.00,,,0.01,WeatherCatV1.23B16,2013-12-04 15:17:00,
2013-12-04 15:22:00,46.6,40.4,30.44,SW,224,5.0,7.0,79,0.00,,,0.01,WeatherCatV1.23B16,2013-12-04 15:22:00,
2013-12-04 15:27:00,46.5,40.0,30.44,WSW,239,5.0,6.0,78,0.00,,,0.01,WeatherCatV1.23B16,2013-12-04 15:27:00,
2013-12-04 15:32:00,46.3,39.5,30.44,WSW,250,7.0,9.0,77,0.00,,,0.01,WeatherCatV1.23B16,2013-12-04 15:32:00,
2013-12-04 15:37:00,46.1,39.3,30.44,West,272,3.0,5.0,77,0.00,,,0.01,WeatherCatV1.23B16,2013-12-04 15:37:00,
2013-12-04 15:42:00,45.9,39.1,30.44,West,264,3.0,4.0,77,0.00,,,0.01,WeatherCatV1.23B16,2013-12-04 15:42:00,
2013-12-04 15:47:00,45.7,38.9,30.44,West,268,2.0,3.0,77,0.00,,,0.01,WeatherCatV1.23B16,2013-12-04 15:47:00,
2013-12-04 15:52:00,45.5,38.7,30.45,WNW,283,5.0,6.0,77,0.00,,,0.01,WeatherCatV1.23B16,2013-12-04 15:52:00,
2013-12-04 15:57:00,45.4,39.0,30.45,WNW,290,2.0,4.0,78,0.00,,,0.01,WeatherCatV1.23B16,2013-12-04 15:57:00,
2013-12-04 16:02:00,45.3,38.8,30.44,WSW,255,3.0,3.0,78,0.00,,,0.01,WeatherCatV1.23B16,2013-12-04 16:02:00,
2013-12-04 16:07:00,45.1,39.0,30.45,WSW,250,2.0,3.0,79,0.00,,,0.01,WeatherCatV1.23B16,2013-12-04 16:07:00,
2013-12-04 16:12:00,44.9,39.1,30.45,West,263,1.0,3.0,80,0.00,,,0.01,WeatherCatV1.23B16,2013-12-04 16:12:00,
2013-12-04 16:17:00,44.5,39.0,30.45,WSW,240,3.0,5.0,81,0.00,,,0.01,WeatherCatV1.23B16,2013-12-04 16:17:00,
2013-12-04 16:22:00,44.1,39.0,30.45,WSW,240,4.0,4.0,82,0.00,,,0.01,WeatherCatV1.23B16,2013-12-04 16:22:00,
2013-12-04 16:27:00,43.7,38.9,30.44,SW,228,6.0,6.0,83,0.00,,,0.01,WeatherCatV1.23B16,2013-12-04 16:27:00,
2013-12-04 16:32:00,43.5,39.0,30.44,WSW,242,6.0,6.0,84,0.00,,,0.01,WeatherCatV1.23B16,2013-12-04 16:32:00,
2013-12-04 16:37:00,43.4,39.2,30.44,WSW,246,5.0,6.0,85,0.00,,,0.01,WeatherCatV1.23B16,2013-12-04 16:37:00,
2013-12-04 16:42:00,43.3,39.1,30.44,West,266,3.0,5.0,85,0.00,,,0.01,WeatherCatV1.23B16,2013-12-04 16:42:00,
2013-12-04 16:47:00,43.2,39.0,30.44,WSW,253,4.0,5.0,85,0.00,,,0.01,WeatherCatV1.23B16,2013-12-04 16:47:00,
2013-12-04 16:52:00,43.2,39.0,30.44,West,274,4.0,9.0,85,0.00,,,0.01,WeatherCatV1.23B16,2013-12-04 16:52:00,
2013-12-04 16:57:00,43.1,38.6,30.44,West,271,6.0,7.0,84,0.00,,,0.01,WeatherCatV1.23B16,2013-12-04 16:57:00,
2013-12-04 17:02:00,42.7,38.5,30.44,West,276,4.0,5.0,85,0.00,,,0.01,WeatherCatV1.23B16,2013-12-04 17:02:00,
2013-12-04 17:07:00,42.4,38.2,30.45,West,280,2.0,5.0,85,0.00,,,0.01,WeatherCatV1.23B16,2013-12-04 17:07:00,
2013-12-04 17:12:00,42.2,38.3,30.45,West,280,2.0,4.0,86,0.00,,,0.01,WeatherCatV1.23B16,2013-12-04 17:12:00,
2013-12-04 17:17:00,42.1,38.2,30.45,West,277,1.0,4.0,86,0.00,,,0.01,WeatherCatV1.23B16,2013-12-04 17:17:00,
2013-12-04 17:22:00,41.9,38.0,30.45,NW,307,2.0,3.0,86,0.00,,,0.01,WeatherCatV1.23B16,2013-12-04 17:22:00,
2013-12-04 17:27:00,41.7,37.8,30.45,West,267,3.0,3.0,86,0.00,,,0.01,WeatherCatV1.23B16,2013-12-04 17:27:00,
2013-12-04 17:32:00,41.7,38.1,30.45,WSW,250,3.0,3.0,87,0.00,,,0.01,WeatherCatV1.23B16,2013-12-04 17:32:00,
2013-12-04 17:37:00,42.3,38.7,30.45,West,272,3.0,6.0,87,0.00,,,0.01,WeatherCatV1.23B16,2013-12-04 17:37:00,
2013-12-04 17:42:00,42.7,38.8,30.45,West,277,5.0,6.0,86,0.00,,,0.01,WeatherCatV1.23B16,2013-12-04 17:42:00,
2013-12-04 17:47:00,42.9,39.0,30.45,West,267,3.0,4.0,86,0.00,,,0.01,WeatherCatV1.23B16,2013-12-04 17:47:00,
2013-12-04 17:52:00,42.7,38.8,30.45,West,278,3.0,3.0,86,0.00,,,0.01,WeatherCatV1.23B16,2013-12-04 17:52:00,
2013-12-04 17:57:00,42.4,38.5,30.44,West,273,2.0,4.0,86,0.00,,,0.01,WeatherCatV1.23B16,2013-12-04 17:57:00,
2013-12-04 18:02:00,42.2,38.6,30.44,West,262,1.0,2.0,87,0.00,,,0.01,WeatherCatV1.23B16,2013-12-04 18:02:00,
2013-12-04 18:07:00,41.9,38.3,30.44,WSW,257,0.0,1.0,87,0.00,,,0.01,WeatherCatV1.23B16,2013-12-04 18:07:00,
2013-12-04 18:12:00,41.8,38.5,30.44,West,280,1.0,3.0,88,0.00,,,0.01,WeatherCatV1.23B16,2013-12-04 18:12:00,
2013-12-04 18:17:00,41.8,38.5,30.44,West,278,1.0,1.0,88,0.00,,,0.01,WeatherCatV1.23B16,2013-12-04 18:17:00,
2013-12-04 18:22:00,41.6,38.3,30.44,West,264,1.0,1.0,88,0.00,,,0.01,WeatherCatV1.23B16,2013-12-04 18:22:00,
2013-12-04 18:27:00,41.4,38.4,30.43,WSW,238,2.0,4.0,89,0.00,,,0.01,WeatherCatV1.23B16,2013-12-04 18:27:00,
2013-12-04 18:32:00,41.3,38.6,30.43,West,260,2.0,4.0,90,0.00,,,0.01,WeatherCatV1.23B16,2013-12-04 18:32:00,
2013-12-04 18:37:00,41.6,38.6,30.43,WNW,289,2.0,3.0,89,0.00,,,0.01,WeatherCatV1.23B16,2013-12-04 18:37:00,
2013-12-04 18:42:00,41.9,38.6,30.42,WSW,246,3.0,3.0,88,0.00,,,0.01,WeatherCatV1.23B16,2013-12-04 18:42:00,
2013-12-04 18:47:00,42.1,38.5,30.42,SW,232,1.0,3.0,87,0.00,,,0.01,WeatherCatV1.23B16,2013-12-04 18:47:00,
2013-12-04 18:52:00,41.9,38.3,30.43,West,271,1.0,1.0,87,0.00,,,0.01,WeatherCatV1.23B16,2013-12-04 18:52:00,
2013-12-04 18:57:00,41.7,38.1,30.43,SW,233,1.0,4.0,87,0.00,,,0.01,WeatherCatV1.23B16,2013-12-04 18:57:00,
2013-12-04 19:02:00,41.6,38.0,30.43,WSW,253,4.0,5.0,87,0.00,,,0.01,WeatherCatV1.23B16,2013-12-04 19:02:00,
2013-12-04 19:07:00,42.0,38.4,30.42,WSW,239,3.0,6.0,87,0.00,,,0.01,WeatherCatV1.23B16,2013-12-04 19:07:00,
2013-12-04 19:12:00,42.5,38.6,30.43,South,190,4.0,7.0,86,0.00,,,0.01,WeatherCatV1.23B16,2013-12-04 19:12:00,
2013-12-04 19:17:00,42.9,39.0,30.42,West,260,6.0,12.0,86,0.00,,,0.01,WeatherCatV1.23B16,2013-12-04 19:17:00,
2013-12-04 19:22:00,43.2,39.3,30.42,WSW,249,6.0,9.0,86,0.00,,,0.01,WeatherCatV1.23B16,2013-12-04 19:22:00,
2013-12-04 19:27:00,43.5,39.9,30.42,SW,231,6.0,6.0,87,0.00,,,0.01,WeatherCatV1.23B16,2013-12-04 19:27:00,
2013-12-04 19:32:00,43.8,40.2,30.42,WSW,250,4.0,7.0,87,0.00,,,0.01,WeatherCatV1.23B16,2013-12-04 19:32:00,
2013-12-04 19:37:00,43.9,40.3,30.42,WSW,246,5.0,9.0,87,0.00,,,0.01,WeatherCatV1.23B16,2013-12-04 19:37:00,
2013-12-04 19:42:00,44.1,40.2,30.42,West,273,5.0,9.0,86,0.00,,,0.01,WeatherCatV1.23B16,2013-12-04 19:42:00,
2013-12-04 19:47:00,44.3,40.4,30.42,SW,231,4.0,7.0,86,0.00,,,0.01,WeatherCatV1.23B16,2013-12-04 19:47:00,
2013-12-04 19:52:00,44.3,40.4,30.42,West,270,3.0,6.0,86,0.00,,,0.01,WeatherCatV1.23B16,2013-12-04 19:52:00,
2013-12-04 19:57:00,44.3,40.4,30.42,WSW,253,7.0,9.0,86,0.00,,,0.01,WeatherCatV1.23B16,2013-12-04 19:57:00,
2013-12-04 20:02:00,44.3,40.4,30.42,WSW,245,8.0,8.0,86,0.00,,,0.01,WeatherCatV1.23B16,2013-12-04 20:02:00,
2013-12-04 20:07:00,44.5,40.3,30.43,WSW,253,6.0,10.0,85,0.00,,,0.01,WeatherCatV1.23B16,2013-12-04 20:07:00,
2013-12-04 20:12:00,44.7,40.5,30.43,SW,221,4.0,10.0,85,0.00,,,0.01,WeatherCatV1.23B16,2013-12-04 20:12:00,
2013-12-04 20:17:00,44.9,40.4,30.43,WSW,253,6.0,11.0,84,0.00,,,0.01,WeatherCatV1.23B16,2013-12-04 20:17:00,
2013-12-04 20:22:00,45.1,40.6,30.42,WSW,255,7.0,10.0,84,0.00,,,0.01,WeatherCatV1.23B16,2013-12-04 20:22:00,
2013-12-04 20:27:00,45.2,40.3,30.42,SW,231,8.0,9.0,83,0.00,,,0.01,WeatherCatV1.23B16,2013-12-04 20:27:00,
2013-12-04 20:32:00,45.4,40.2,30.41,West,261,6.0,11.0,82,0.00,,,0.01,WeatherCatV1.23B16,2013-12-04 20:32:00,
2013-12-04 20:37:00,45.7,40.2,30.40,SW,236,10.0,11.0,81,0.00,,,0.01,WeatherCatV1.23B16,2013-12-04 20:37:00,
2013-12-04 20:42:00,46.0,40.2,30.40,SW,219,5.0,12.0,80,0.00,,,0.01,WeatherCatV1.23B16,2013-12-04 20:42:00,
2013-12-04 20:47:00,46.0,39.9,30.40,SSW,200,6.0,14.0,79,0.00,,,0.01,WeatherCatV1.23B16,2013-12-04 20:47:00,
2013-12-04 20:52:00,46.0,39.5,30.40,West,259,7.0,13.0,78,0.00,,,0.01,WeatherCatV1.23B16,2013-12-04 20:52:00,
2013-12-04 20:57:00,46.1,39.3,30.39,SSW,208,6.0,14.0,77,0.00,,,0.01,WeatherCatV1.23B16,2013-12-04 20:57:00,
2013-12-04 21:02:00,46.2,39.7,30.39,SW,232,11.0,16.0,78,0.00,,,0.01,WeatherCatV1.23B16,2013-12-04 21:02:00,
2013-12-04 21:07:00,46.4,39.9,30.39,WSW,242,7.0,13.0,78,0.00,,,0.01,WeatherCatV1.23B16,2013-12-04 21:07:00,
2013-12-04 21:12:00,46.7,39.5,30.39,WSW,246,7.0,16.0,76,0.00,,,0.01,WeatherCatV1.23B16,2013-12-04 21:12:00,
2013-12-04 21:17:00,46.6,39.5,30.39,WSW,240,8.0,10.0,76,0.00,,,0.01,WeatherCatV1.23B16,2013-12-04 21:17:00,
2013-12-04 21:22:00,46.5,39.3,30.39,SW,222,8.0,8.0,76,0.00,,,0.01,WeatherCatV1.23B16,2013-12-04 21:22:00,
2013-12-04 21:27:00,46.5,39.0,30.39,West,260,6.0,12.0,75,0.00,,,0.01,WeatherCatV1.23B16,2013-12-04 21:27:00,
2013-12-04 21:32:00,46.6,39.5,30.39,West,260,6.0,9.0,76,0.00,,,0.01,WeatherCatV1.23B16,2013-12-04 21:32:00,
2013-12-04 21:37:00,46.9,39.4,30.38,West,260,9.0,14.0,75,0.00,,,0.01,WeatherCatV1.23B16,2013-12-04 21:37:00,
2013-12-04 21:42:00,47.1,39.6,30.38,WSW,253,8.0,19.0,75,0.00,,,0.01,WeatherCatV1.23B16,2013-12-04 21:42:00,
2013-12-04 21:47:00,47.2,39.7,30.38,SW,228,7.0,18.0,75,0.00,,,0.01,WeatherCatV1.23B16,2013-12-04 21:47:00,
2013-12-04 21:52:00,47.1,39.6,30.38,WSW,253,8.0,12.0,75,0.00,,,0.01,WeatherCatV1.23B16,2013-12-04 21:52:00,
2013-12-04 21:57:00,47.1,39.2,30.38,WSW,246,8.0,16.0,74,0.00,,,0.01,WeatherCatV1.23B16,2013-12-04 21:57:00,
2013-12-04 22:02:00,47.2,39.7,30.37,SSW,200,10.0,15.0,75,0.00,,,0.01,WeatherCatV1.23B16,2013-12-04 22:02:00,
2013-12-04 22:07:00,47.1,40.3,30.36,WSW,258,10.0,18.0,77,0.00,,,0.01,WeatherCatV1.23B16,2013-12-04 22:07:00,
2013-12-04 22:12:00,47.1,41.2,30.37,WSW,252,5.0,15.0,80,0.00,,,0.01,WeatherCatV1.23B16,2013-12-04 22:12:00,
2013-12-04 22:17:00,47.0,41.8,30.36,West,263,12.0,17.0,82,0.00,,,0.01,WeatherCatV1.23B16,2013-12-04 22:17:00,
2013-12-04 22:22:00,47.0,41.5,30.37,West,266,10.0,17.0,81,0.00,,,0.01,WeatherCatV1.23B16,2013-12-04 22:22:00,
2013-12-04 22:27:00,47.2,39.7,30.36,SW,229,11.0,22.0,75,0.00,,,0.01,WeatherCatV1.23B16,2013-12-04 22:27:00,
2013-12-04 22:32:00,47.0,39.5,30.36,West,261,14.0,17.0,75,0.00,,,0.01,WeatherCatV1.23B16,2013-12-04 22:32:00,
2013-12-04 22:37:00,46.9,39.4,30.36,SW,233,12.0,17.0,75,0.00,,,0.01,WeatherCatV1.23B16,2013-12-04 22:37:00,
2013-12-04 22:42:00,46.9,39.4,30.36,SW,219,15.0,17.0,75,0.00,,,0.01,WeatherCatV1.23B16,2013-12-04 22:42:00,
2013-12-04 22:47:00,47.1,39.9,30.36,West,274,10.0,14.0,76,0.00,,,0.01,WeatherCatV1.23B16,2013-12-04 22:47:00,
2013-12-04 22:52:00,47.2,40.4,30.36,WSW,256,8.0,14.0,77,0.00,,,0.01,WeatherCatV1.23B16,2013-12-04 22:52:00,
2013-12-04 22:57:00,47.2,41.3,30.36,WSW,250,16.0,21.0,80,0.00,,,0.01,WeatherCatV1.23B16,2013-12-04 22:57:00,
2013-12-04 23:02:00,47.2,41.3,30.35,SSW,201,9.0,18.0,80,0.00,,,0.01,WeatherCatV1.23B16,2013-12-04 23:02:00,
2013-12-04 23:07:00,47.2,40.0,30.35,SW,224,9.0,21.0,76,0.00,,,0.01,WeatherCatV1.23B16,2013-12-04 23:07:00,
2013-12-04 23:12:00,47.2,39.3,30.35,WSW,245,14.0,17.0,74,0.00,,,0.01,WeatherCatV1.23B16,2013-12-04 23:12:00,
2013-12-04 23:17:00,47.2,39.3,30.35,SSW,208,9.0,19.0,74,0.00,,,0.01,WeatherCatV1.23B16,2013-12-04 23:17:00,
2013-12-04 23:22:00,47.3,40.1,30.35,SW,229,11.0,21.0,76,0.00,,,0.01,WeatherCatV1.23B16,2013-12-04 23:22:00,
2013-12-04 23:27:00,47.2,41.0,30.34,West,278,13.0,20.0,79,0.00,,,0.01,WeatherCatV1.23B16,2013-12-04 23:27:00,
2013-12-04 23:32:00,47.1,41.2,30.34,WSW,256,12.0,22.0,80,0.00,,,0.01,WeatherCatV1.23B16,2013-12-04 23:32:00,
2013-12-04 23:37:00,47.3,41.8,30.34,SW,224,13.0,20.0,81,0.00,,,0.01,WeatherCatV1.23B16,2013-12-04 23:37:00,
2013-12-04 23:42:00,47.5,41.3,30.34,WSW,248,11.0,19.0,79,0.00,,,0.01,WeatherCatV1.23B16,2013-12-04 23:42:00,
2013-12-04 23:47:00,47.9,41.0,30.33,WSW,257,16.0,19.0,77,0.00,,,0.01,WeatherCatV1.23B16,2013-12-04 23:47:00,
2013-12-04 23:52:00,48.1,40.6,30.33,SW,226,15.0,25.0,75,0.00,,,0.01,WeatherCatV1.23B16,2013-12-04 23:52:00,
2013-12-04 23:57:00,48.2,40.7,30.33,WSW,249,16.0,21.0,75,0.00,,,0.01,WeatherCatV1.23B16,2013-12-04 23:57:00,